createdAt,value
2022-11-18T00:02:05.230Z,28.87
2022-11-18T00:04:33.187Z,31.10
2022-11-18T00:07:01.060Z,31.10
2022-11-18T00:09:28.956Z,31.13
2022-11-18T00:12:14.313Z,32.33
2022-11-18T00:14:43.455Z,30.97
2022-11-18T00:17:11.220Z,30.97
2022-11-18T00:19:42.943Z,33.60
2022-11-18T00:22:12.682Z,31.20
2022-11-18T00:24:42.230Z,30.73
2022-11-18T00:27:09.884Z,31.47
2022-11-18T00:29:38.524Z,30.10
2022-11-18T00:32:07.792Z,33.63
2022-11-18T00:34:35.440Z,30.97
2022-11-18T00:37:03.270Z,31.57
2022-11-18T00:39:31.605Z,31.83
2022-11-18T00:42:16.810Z,33.13
2022-11-18T00:44:44.587Z,32.67
2022-11-18T00:47:13.582Z,31.93
2022-11-18T00:49:41.292Z,31.37
2022-11-18T00:52:09.055Z,35.80
2022-11-18T00:54:36.740Z,30.57
2022-11-18T00:57:05.284Z,28.93
2022-11-18T00:59:33.252Z,30.63
2022-11-18T01:02:01.165Z,29.20
2022-11-18T01:04:30.380Z,29.87
2022-11-18T01:06:58.263Z,29.23
2022-11-18T01:09:26.656Z,28.77
2022-11-18T01:12:12.157Z,29.43
2022-11-18T01:14:39.894Z,30.07
2022-11-18T01:17:07.502Z,29.57
2022-11-18T01:19:36.988Z,31.20
2022-11-18T01:22:04.680Z,26.87
2022-11-18T01:24:32.864Z,26.43
2022-11-18T01:27:00.545Z,27.40
2022-11-18T01:29:28.200Z,28.57
2022-11-18T01:32:22.654Z,28.20
2022-11-18T01:34:45.485Z,27.37
2022-11-18T01:37:13.440Z,26.50
2022-11-18T01:39:41.121Z,25.53
2022-11-18T01:42:13.533Z,25.87
2022-11-18T01:45:02.177Z,27.57
2022-11-18T01:47:32.530Z,26.57
2022-11-18T01:50:02.787Z,25.93
2022-11-18T01:52:30.834Z,26.50
2022-11-18T01:55:00.675Z,26.13
2022-11-18T01:57:30.593Z,26.53
2022-11-18T01:59:59.520Z,27.43
2022-11-18T02:02:28.303Z,25.63
2022-11-18T02:04:57.584Z,26.23
2022-11-18T02:07:26.876Z,28.27
2022-11-18T02:09:56.365Z,26.90
2022-11-18T02:12:24.204Z,26.47
2022-11-18T02:14:52.612Z,26.03
2022-11-18T02:17:27.431Z,27.90
2022-11-18T02:20:07.483Z,26.90
2022-11-18T02:22:47.511Z,26.80
2022-11-18T02:25:19.414Z,26.33
2022-11-18T02:28:07.867Z,25.97
2022-11-18T02:30:43.948Z,26.20
2022-11-18T02:33:13.667Z,25.47
2022-11-18T02:35:42.968Z,26.40
2022-11-18T02:38:12.939Z,27.67
2022-11-18T02:40:43.040Z,25.30
2022-11-18T02:43:12.771Z,28.30
2022-11-18T02:45:44.027Z,26.13
2022-11-18T02:48:13.418Z,26.80
2022-11-18T02:50:42.406Z,26.17
2022-11-18T02:53:12.082Z,26.17
2022-11-18T02:55:41.477Z,26.23
2022-11-18T02:58:09.939Z,26.33
2022-11-18T03:00:37.841Z,26.23
2022-11-18T03:03:20.550Z,26.20
2022-11-18T03:05:55.418Z,26.53
2022-11-18T03:08:27.060Z,28.43
2022-11-18T03:10:59.713Z,27.93
2022-11-18T03:13:30.485Z,27.50
2022-11-18T03:16:02.314Z,27.80
2022-11-18T03:18:34.660Z,26.47
2022-11-18T03:21:07.857Z,28.00
2022-11-18T03:23:37.506Z,30.47
2022-11-18T03:26:07.476Z,29.70
2022-11-18T03:28:37.167Z,29.23
2022-11-18T03:31:09.742Z,33.47
2022-11-18T03:33:40.175Z,29.53
2022-11-18T03:36:10.930Z,35.80
2022-11-18T03:38:40.864Z,30.57
2022-11-18T03:41:11.557Z,30.67
2022-11-18T03:43:41.242Z,32.67
2022-11-18T03:46:10.730Z,33.40
2022-11-18T03:48:42.345Z,32.60
2022-11-18T03:51:12.734Z,34.23
2022-11-18T03:53:41.608Z,32.93
2022-11-18T03:56:16.936Z,33.97
2022-11-18T03:58:48.686Z,32.20
2022-11-18T04:01:18.394Z,32.60
2022-11-18T04:03:46.301Z,32.50
2022-11-18T04:06:18.009Z,33.40
2022-11-18T04:08:47.950Z,32.20
2022-11-18T04:11:31.909Z,32.83
2022-11-18T04:14:00.410Z,33.80
2022-11-18T04:16:28.076Z,33.43
2022-11-18T04:18:56.032Z,36.90
2022-11-18T04:21:25.237Z,34.90
2022-11-18T04:23:53.013Z,34.53
2022-11-18T04:26:21.286Z,38.10
2022-11-18T04:28:49.096Z,35.90
2022-11-18T04:31:17.067Z,36.80
2022-11-18T04:33:44.883Z,39.17
2022-11-18T04:36:12.479Z,36.70
2022-11-18T04:38:41.652Z,38.10
2022-11-18T04:41:09.776Z,42.10
2022-11-18T04:43:37.420Z,37.07
2022-11-18T04:46:07.368Z,37.63
2022-11-18T04:48:35.280Z,37.63
2022-11-18T04:51:03.846Z,38.70
2022-11-18T04:53:32.200Z,40.27
2022-11-18T04:56:06.646Z,43.67
2022-11-18T04:58:34.894Z,38.80
2022-11-18T05:01:02.481Z,43.13
2022-11-18T05:03:30.352Z,45.23
2022-11-18T05:06:02.237Z,41.07
2022-11-18T05:08:29.916Z,41.97
2022-11-18T05:11:17.711Z,39.47
2022-11-18T05:13:45.775Z,42.23
2022-11-18T05:16:13.480Z,42.30
2022-11-18T05:18:41.187Z,43.20
2022-11-18T05:21:08.978Z,41.63
2022-11-18T05:23:36.700Z,45.23
2022-11-18T05:26:04.673Z,54.60
2022-11-18T05:28:32.589Z,44.63
2022-11-18T05:31:01.771Z,44.70
2022-11-18T05:33:29.773Z,43.57
2022-11-18T05:35:57.386Z,45.63
2022-11-18T05:38:25.481Z,43.67
2022-11-18T05:40:53.262Z,43.90
2022-11-18T05:43:20.151Z,44.43
2022-11-18T05:45:51.037Z,39.97
2022-11-18T05:48:20.426Z,41.60
2022-11-18T05:50:48.803Z,41.80
2022-11-18T05:53:16.992Z,39.83
2022-11-18T05:55:49.057Z,39.27
2022-11-18T05:58:16.988Z,40.10
2022-11-18T06:00:46.197Z,38.37
2022-11-18T06:03:17.775Z,39.17
2022-11-18T06:05:47.112Z,37.73
2022-11-18T06:08:16.022Z,37.80
2022-11-18T06:11:06.936Z,36.97
2022-11-18T06:13:35.766Z,37.13
2022-11-18T06:16:03.622Z,33.53
2022-11-18T06:18:32.712Z,34.80
2022-11-18T06:21:04.042Z,34.27
2022-11-18T06:23:32.802Z,33.30
2022-11-18T06:26:00.476Z,31.27
2022-11-18T06:28:28.881Z,28.93
2022-11-18T06:30:56.830Z,29.27
2022-11-18T06:33:24.588Z,28.60
2022-11-18T06:35:52.192Z,27.33
2022-11-18T06:38:24.558Z,29.33
2022-11-18T06:40:52.828Z,28.47
2022-11-18T06:43:37.967Z,27.50
2022-11-18T06:46:23.792Z,30.03
2022-11-18T06:48:52.071Z,26.63
2022-11-18T06:51:19.650Z,26.67
2022-11-18T06:53:48.710Z,28.10
2022-11-18T06:56:17.444Z,29.23
2022-11-18T06:58:45.335Z,28.93
2022-11-18T07:01:13.626Z,30.20
2022-11-18T07:03:41.406Z,29.77
2022-11-18T07:06:09.604Z,29.53
2022-11-18T07:08:37.821Z,29.73
2022-11-18T07:11:07.841Z,29.60
2022-11-18T07:13:40.583Z,30.97
2022-11-18T07:16:12.647Z,29.43
2022-11-18T07:18:41.462Z,29.60
2022-11-18T07:21:10.088Z,29.73
2022-11-18T07:23:37.839Z,30.90
2022-11-18T07:26:07.443Z,31.43
2022-11-18T07:28:35.904Z,29.47
2022-11-18T07:31:04.586Z,29.23
2022-11-18T07:33:32.798Z,29.10
2022-11-18T07:36:05.459Z,28.50
2022-11-18T07:38:34.579Z,28.20
2022-11-18T07:41:08.174Z,28.27
2022-11-18T07:43:36.035Z,28.07
2022-11-18T07:46:11.488Z,28.57
2022-11-18T07:48:39.694Z,28.43
2022-11-18T07:51:07.461Z,27.70
2022-11-18T07:53:36.223Z,26.17
2022-11-18T07:56:04.702Z,28.07
2022-11-18T07:58:34.086Z,28.00
2022-11-18T08:01:08.843Z,28.27
2022-11-18T08:03:58.646Z,27.53
2022-11-18T08:06:26.628Z,26.67
2022-11-18T08:08:54.297Z,28.17
2022-11-18T08:11:23.094Z,27.23
2022-11-18T08:13:52.666Z,27.00
2022-11-18T08:16:21.130Z,25.33
2022-11-18T08:18:49.118Z,26.87
2022-11-18T08:21:17.695Z,27.90
2022-11-18T08:23:49.889Z,26.50
2022-11-18T08:26:18.003Z,26.20
2022-11-18T08:28:46.246Z,25.30
2022-11-18T08:31:16.036Z,25.77
2022-11-18T08:33:43.690Z,24.40
2022-11-18T08:36:13.919Z,24.97
2022-11-18T08:38:41.565Z,23.20
2022-11-18T08:41:11.847Z,25.23
2022-11-18T08:43:39.777Z,23.53
2022-11-18T08:46:07.581Z,24.73
2022-11-18T08:48:36.613Z,23.47
2022-11-18T08:51:04.388Z,23.60
2022-11-18T08:53:32.857Z,23.67
2022-11-18T08:56:01.511Z,22.37
2022-11-18T08:58:29.382Z,22.63
2022-11-18T09:00:57.027Z,22.57
2022-11-18T09:03:26.508Z,23.00
2022-11-18T09:05:55.511Z,23.17
2022-11-18T09:08:26.797Z,22.00
2022-11-18T09:10:54.438Z,21.77
2022-11-18T09:16:10.162Z,22.03
2022-11-18T09:18:37.900Z,22.27
2022-11-18T09:21:07.986Z,22.37
2022-11-18T09:23:37.700Z,21.73
2022-11-18T09:26:06.303Z,21.70
2022-11-18T09:28:34.886Z,21.90
2022-11-18T09:31:05.073Z,22.70
2022-11-18T09:33:34.590Z,22.60
2022-11-18T09:36:02.803Z,22.70
2022-11-18T09:38:32.091Z,23.00
2022-11-18T09:41:04.609Z,21.87
2022-11-18T09:43:36.877Z,21.07
2022-11-18T09:46:07.466Z,18.60
2022-11-18T09:48:55.454Z,18.80
2022-11-18T09:51:26.354Z,18.17
2022-11-18T09:53:55.699Z,18.60
2022-11-18T09:56:23.377Z,17.87
2022-11-18T09:58:51.409Z,17.50
2022-11-18T10:01:20.909Z,15.70
2022-11-18T10:03:48.775Z,16.90
2022-11-18T10:06:23.390Z,14.67
2022-11-18T10:08:59.347Z,14.00
2022-11-18T10:11:29.626Z,13.67
2022-11-18T10:14:02.896Z,13.00
2022-11-18T10:16:37.065Z,12.97
2022-11-18T10:19:10.670Z,13.57
2022-11-18T10:21:43.298Z,13.03
2022-11-18T10:24:17.027Z,11.63
2022-11-18T10:26:44.973Z,11.60
2022-11-18T10:29:12.565Z,15.07
2022-11-18T10:31:41.343Z,13.40
2022-11-18T10:34:11.571Z,11.23
2022-11-18T10:36:39.610Z,11.90
2022-11-18T10:39:13.439Z,11.50
2022-11-18T10:41:45.472Z,11.50
2022-11-18T10:44:34.296Z,11.70
2022-11-18T10:47:16.253Z,12.17
2022-11-18T10:49:44.634Z,11.50
2022-11-18T10:52:14.112Z,11.90
2022-11-18T10:54:42.039Z,12.83
2022-11-18T10:57:15.810Z,12.60
2022-11-18T10:59:47.670Z,12.67
2022-11-18T11:02:18.583Z,11.00
2022-11-18T11:04:47.249Z,11.33
2022-11-18T11:07:16.343Z,10.90
2022-11-18T11:09:44.013Z,13.20
2022-11-18T11:12:16.839Z,13.17
2022-11-18T11:14:50.893Z,12.90
2022-11-18T11:17:21.206Z,11.70
2022-11-18T11:19:52.037Z,11.67
2022-11-18T11:22:19.897Z,11.70
2022-11-18T11:24:49.540Z,12.87
2022-11-18T11:30:31.815Z,11.37
2022-11-18T11:33:11.422Z,13.10
2022-11-18T11:35:45.021Z,12.23
2022-11-18T11:38:15.840Z,13.27
2022-11-18T11:40:47.305Z,13.53
2022-11-18T11:43:24.388Z,13.90
2022-11-18T11:46:01.326Z,13.97
2022-11-18T11:48:33.645Z,13.67
2022-11-18T11:51:05.230Z,13.00
2022-11-18T11:53:58.497Z,11.50
2022-11-18T11:56:31.574Z,11.37
2022-11-18T11:59:17.539Z,11.80
2022-11-18T12:01:52.692Z,11.27
2022-11-18T12:04:29.774Z,12.00
2022-11-18T12:06:59.049Z,11.50
2022-11-18T12:09:28.491Z,10.80
2022-11-18T12:11:57.929Z,11.40
2022-11-18T12:14:29.112Z,11.90
2022-11-18T12:17:02.513Z,11.87
2022-11-18T12:19:30.203Z,11.00
2022-11-18T12:22:00.395Z,10.97
2022-11-18T12:24:32.380Z,9.97
2022-11-18T12:27:00.701Z,9.47
2022-11-18T12:29:32.666Z,9.37
2022-11-18T12:32:02.314Z,9.53
2022-11-18T12:34:32.577Z,9.37
2022-11-18T12:37:30.276Z,8.70
2022-11-18T12:39:59.348Z,9.43
2022-11-18T12:42:55.216Z,10.23
2022-11-18T12:45:46.972Z,10.47
2022-11-18T12:48:29.203Z,9.60
2022-11-18T12:50:57.913Z,10.70
2022-11-18T12:53:32.521Z,8.50
2022-11-18T12:56:00.615Z,8.70
2022-11-18T12:58:29.194Z,8.43
2022-11-18T13:01:08.092Z,8.53
2022-11-18T13:03:37.209Z,8.63
2022-11-18T13:06:07.504Z,8.70
2022-11-18T13:08:36.008Z,8.20
2022-11-18T13:11:26.476Z,8.30
2022-11-18T13:14:15.847Z,8.13
2022-11-18T13:17:07.394Z,9.03
2022-11-18T13:19:36.893Z,8.33
2022-11-18T13:22:22.390Z,8.97
2022-11-18T13:24:51.269Z,9.47
2022-11-18T13:27:30.586Z,9.50
2022-11-18T13:30:03.275Z,10.17
2022-11-18T13:32:31.765Z,9.30
2022-11-18T13:35:08.387Z,8.97
2022-11-18T13:37:36.506Z,7.97
2022-11-18T13:40:04.523Z,8.63
2022-11-18T13:42:32.624Z,8.60
2022-11-18T13:45:01.058Z,7.47
2022-11-18T13:47:33.511Z,8.97
2022-11-18T13:50:06.161Z,7.40
2022-11-18T13:52:36.819Z,9.27
2022-11-18T13:55:09.258Z,7.70
2022-11-18T13:57:37.664Z,8.47
2022-11-18T14:00:08.065Z,7.90
2022-11-18T14:02:39.775Z,8.07
2022-11-18T14:05:21.493Z,8.40
2022-11-18T14:07:57.674Z,7.53
2022-11-18T14:10:32.187Z,7.97
2022-11-18T14:13:04.432Z,8.27
2022-11-18T14:15:42.141Z,10.40
2022-11-18T14:18:17.984Z,8.07
2022-11-18T14:20:52.370Z,8.60
2022-11-18T14:23:21.479Z,6.73
2022-11-18T14:25:49.318Z,7.60
2022-11-18T14:28:21.412Z,7.53
2022-11-18T14:30:59.882Z,7.23
2022-11-18T14:33:28.858Z,7.60
2022-11-18T14:35:59.596Z,6.80
2022-11-18T14:38:48.127Z,8.30
2022-11-18T14:41:44.258Z,8.03
2022-11-18T14:44:13.469Z,8.00
2022-11-18T14:46:42.441Z,8.23
2022-11-18T14:49:13.711Z,8.10
2022-11-18T14:51:42.832Z,9.50
2022-11-18T14:54:13.244Z,7.33
2022-11-18T14:56:40.828Z,9.20
2022-11-18T14:59:08.433Z,6.30
2022-11-18T15:01:36.643Z,7.23
2022-11-18T15:04:05.066Z,6.50
2022-11-18T15:06:33.075Z,5.30
2022-11-18T15:09:02.083Z,5.43
2022-11-18T15:11:29.722Z,5.73
2022-11-18T15:13:57.376Z,4.80
2022-11-18T15:16:26.239Z,5.07
2022-11-18T15:18:54.960Z,5.43
2022-11-18T15:21:22.928Z,5.50
2022-11-18T15:23:51.038Z,6.47
2022-11-18T15:26:21.189Z,5.50
2022-11-18T15:28:49.007Z,6.00
2022-11-18T15:31:17.091Z,6.63
2022-11-18T15:33:45.900Z,5.13
2022-11-18T15:36:14.769Z,5.83
2022-11-18T15:38:42.992Z,5.30
2022-11-18T15:41:15.344Z,6.13
2022-11-18T15:43:44.316Z,6.67
2022-11-18T15:46:11.945Z,6.00
2022-11-18T15:48:39.859Z,7.00
2022-11-18T15:51:11.630Z,7.30
2022-11-18T15:53:40.991Z,6.73
2022-11-18T15:56:15.047Z,5.87
2022-11-18T15:58:44.269Z,7.20
2022-11-18T16:01:12.279Z,7.27
2022-11-18T16:03:39.903Z,7.40
2022-11-18T16:06:07.724Z,7.10
2022-11-18T16:08:35.368Z,6.77
2022-11-18T16:11:20.789Z,8.67
2022-11-18T16:13:49.790Z,8.73
2022-11-18T16:16:20.630Z,11.07
2022-11-18T16:18:48.212Z,10.37
2022-11-18T16:21:15.880Z,10.50
2022-11-18T16:23:43.514Z,10.13
2022-11-18T16:26:11.199Z,9.73
2022-11-18T16:28:39.876Z,8.70
2022-11-18T16:31:26.429Z,11.13
2022-11-18T16:33:54.080Z,12.23
2022-11-18T16:36:26.451Z,11.60
2022-11-18T16:38:54.160Z,10.33
2022-11-18T16:41:33.965Z,9.87
2022-11-18T16:44:03.386Z,9.57
2022-11-18T16:46:33.059Z,10.23
2022-11-18T16:49:01.058Z,10.33
2022-11-18T16:51:29.899Z,9.93
2022-11-18T16:54:00.082Z,14.10
2022-11-18T16:56:29.996Z,12.67
2022-11-18T16:58:58.332Z,10.73
2022-11-18T17:01:29.385Z,11.00
2022-11-18T17:04:00.327Z,9.40
2022-11-18T17:06:28.887Z,9.60
2022-11-18T17:08:57.479Z,10.07
2022-11-18T17:11:25.227Z,9.00
2022-11-18T17:13:57.728Z,12.77
2022-11-18T17:16:26.804Z,9.13
2022-11-18T17:18:55.962Z,9.97
2022-11-18T17:21:25.332Z,10.07
2022-11-18T17:23:53.517Z,9.30
2022-11-18T17:26:22.600Z,9.90
2022-11-18T17:28:52.348Z,10.47
2022-11-18T17:31:20.612Z,9.67
2022-11-18T17:33:48.789Z,8.63
2022-11-18T17:36:17.254Z,9.53
2022-11-18T17:38:47.070Z,8.90
2022-11-18T17:41:36.007Z,9.17
2022-11-18T17:44:05.009Z,8.70
2022-11-18T17:46:37.780Z,10.30
2022-11-18T17:49:11.844Z,10.20
2022-11-18T17:51:39.594Z,15.90
2022-11-18T17:54:09.065Z,11.80
2022-11-18T17:56:37.097Z,12.70
2022-11-18T17:59:04.900Z,13.10
2022-11-18T18:01:32.743Z,12.47
2022-11-18T18:04:01.298Z,11.57
2022-11-18T18:06:29.056Z,13.33
2022-11-18T18:08:57.249Z,12.30
2022-11-18T18:11:27.207Z,12.23
2022-11-18T18:14:12.245Z,12.60
2022-11-18T18:16:41.024Z,12.77
2022-11-18T18:19:09.234Z,13.20
2022-11-18T18:21:37.130Z,11.50
2022-11-18T18:24:05.261Z,10.40
2022-11-18T18:26:34.657Z,12.57
2022-11-18T18:29:02.703Z,25.20
2022-11-18T18:31:33.936Z,10.30
2022-11-18T18:34:02.085Z,11.47
2022-11-18T18:36:29.822Z,10.90
2022-11-18T18:38:57.641Z,10.83
2022-11-18T18:41:27.310Z,11.13
2022-11-18T18:43:57.847Z,10.73
2022-11-18T18:46:34.204Z,11.20
2022-11-18T18:49:03.777Z,12.23
2022-11-18T18:51:32.916Z,11.10
2022-11-18T18:54:00.626Z,11.73
2022-11-18T18:56:28.831Z,10.73
2022-11-18T18:58:58.654Z,10.00
2022-11-18T19:01:27.697Z,11.93
2022-11-18T19:03:56.747Z,11.70
2022-11-18T19:06:51.711Z,12.53
2022-11-18T19:09:18.220Z,13.47
2022-11-18T19:12:03.914Z,13.53
2022-11-18T19:14:34.429Z,13.67
2022-11-18T19:17:09.180Z,13.43
2022-11-18T19:20:05.296Z,13.10
2022-11-18T19:22:34.056Z,13.90
2022-11-18T19:25:04.113Z,12.33
2022-11-18T19:27:38.725Z,14.00
2022-11-18T19:30:09.106Z,13.30
2022-11-18T19:32:37.074Z,12.53
2022-11-18T19:37:53.534Z,11.47
2022-11-18T19:40:21.314Z,10.60
2022-11-18T19:42:50.203Z,11.60
2022-11-18T19:45:19.566Z,12.83
2022-11-18T19:47:48.480Z,15.67
2022-11-18T19:50:17.557Z,16.13
2022-11-18T19:52:49.069Z,20.07
2022-11-18T19:55:17.416Z,13.60
2022-11-18T19:57:45.922Z,13.23
2022-11-18T20:00:17.425Z,17.20
2022-11-18T20:02:46.595Z,14.70
2022-11-18T20:05:32.197Z,16.33
2022-11-18T20:08:00.228Z,14.70
2022-11-18T20:10:28.310Z,13.40
2022-11-18T20:12:58.045Z,14.40
2022-11-18T20:15:25.884Z,13.43
2022-11-18T20:17:55.513Z,15.00
2022-11-18T20:20:23.397Z,13.33
2022-11-18T20:22:54.073Z,12.67
2022-11-18T20:25:21.894Z,15.73
2022-11-18T20:27:49.542Z,18.57
2022-11-18T20:30:18.107Z,20.60
2022-11-18T20:32:46.857Z,15.03
2022-11-18T20:35:15.990Z,15.33
2022-11-18T20:37:43.845Z,17.37
2022-11-18T20:40:12.118Z,17.57
2022-11-18T20:42:57.264Z,20.27
2022-11-18T20:45:25.446Z,18.83
2022-11-18T20:47:53.037Z,17.10
2022-11-18T20:50:22.297Z,16.90
2022-11-18T20:52:49.950Z,23.00
2022-11-18T20:55:17.947Z,16.37
2022-11-18T20:57:46.001Z,18.07
2022-11-18T21:00:14.129Z,17.87
2022-11-18T21:02:41.950Z,16.27
2022-11-18T21:05:09.755Z,21.50
2022-11-18T21:07:39.076Z,18.00
2022-11-18T21:10:08.058Z,20.17
2022-11-18T21:12:35.750Z,16.27
2022-11-18T21:15:03.713Z,14.43
2022-11-18T21:17:33.232Z,13.47
2022-11-18T21:20:21.445Z,15.23
2022-11-18T21:22:49.583Z,13.60
2022-11-18T21:25:18.335Z,12.77
2022-11-18T21:27:46.941Z,11.87
2022-11-18T21:30:14.794Z,12.70
2022-11-18T21:32:43.044Z,12.90
2022-11-18T21:35:10.713Z,12.00
2022-11-18T21:37:38.291Z,10.70
2022-11-18T21:40:08.256Z,10.90
2022-11-18T21:42:35.945Z,9.90
2022-11-18T21:45:03.520Z,10.13
2022-11-18T21:47:31.543Z,9.63
2022-11-18T21:49:59.439Z,9.70
2022-11-18T21:52:27.203Z,10.80
2022-11-18T21:54:54.886Z,12.50
2022-11-18T21:57:23.900Z,13.30
2022-11-18T21:59:51.751Z,14.70
2022-11-18T22:02:20.029Z,15.50
2022-11-18T22:04:53.515Z,14.37
2022-11-18T22:07:21.787Z,16.97
2022-11-18T22:09:49.473Z,14.10
2022-11-18T22:12:17.332Z,14.80
2022-11-18T22:14:46.367Z,13.00
2022-11-18T22:17:14.099Z,13.60
2022-11-18T22:19:41.855Z,15.17
2022-11-18T22:22:10.081Z,13.07
2022-11-18T22:24:37.803Z,14.63
2022-11-18T22:27:10.984Z,13.00
2022-11-18T22:29:39.404Z,12.17
2022-11-18T22:32:08.545Z,13.17
2022-11-18T22:34:36.458Z,12.07
2022-11-18T22:37:04.397Z,11.97
2022-11-18T22:39:32.241Z,11.90
2022-11-18T22:42:17.684Z,12.03
2022-11-18T22:44:45.542Z,11.40
2022-11-18T22:47:14.556Z,12.80
2022-11-18T22:49:42.602Z,12.60
2022-11-18T22:52:10.198Z,12.70
2022-11-18T22:54:39.629Z,12.40
2022-11-18T22:57:09.065Z,11.87
2022-11-18T22:59:36.749Z,11.33
2022-11-18T23:02:04.775Z,13.73
2022-11-18T23:04:33.732Z,12.40
2022-11-18T23:07:01.582Z,11.70
2022-11-18T23:09:29.293Z,11.90
2022-11-18T23:12:22.838Z,12.17
2022-11-18T23:14:50.645Z,13.00
2022-11-18T23:17:18.308Z,11.87
2022-11-18T23:19:47.487Z,11.80
2022-11-18T23:22:15.288Z,13.10
2022-11-18T23:24:42.989Z,13.10
2022-11-18T23:27:10.970Z,13.43
2022-11-18T23:29:38.726Z,13.30
2022-11-18T23:32:06.379Z,13.57
2022-11-18T23:34:34.206Z,13.03
2022-11-18T23:37:03.129Z,12.87
2022-11-18T23:39:30.751Z,12.80
2022-11-18T23:41:58.489Z,12.87
2022-11-18T23:44:40.087Z,13.27
2022-11-18T23:47:09.461Z,13.63
2022-11-18T23:49:37.147Z,12.93
2022-11-18T23:52:06.547Z,13.30
2022-11-18T23:54:34.669Z,14.50
2022-11-18T23:57:05.219Z,13.80
2022-11-18T23:59:33.497Z,12.90
